sensor_id;sensor_type;location;lat;lon;timestamp;P1;durP1;ratioP1;P2;durP2;ratioP2
75589;SDS011;64169;47.240;11.312;2023-04-29T00:01:49;5.60;;;2.58;;
75589;SDS011;64169;47.240;11.312;2023-04-29T00:04:15;5.93;;;2.30;;
75589;SDS011;64169;47.240;11.312;2023-04-29T00:06:41;6.47;;;2.33;;
75589;SDS011;64169;47.240;11.312;2023-04-29T00:09:06;17.88;;;3.30;;
75589;SDS011;64169;47.240;11.312;2023-04-29T00:11:32;121.20;;;8.30;;
75589;SDS011;64169;47.240;11.312;2023-04-29T00:13:58;170.32;;;9.70;;
75589;SDS011;64169;47.240;11.312;2023-04-29T00:16:23;169.18;;;10.18;;
75589;SDS011;64169;47.240;11.312;2023-04-29T00:18:49;202.25;;;11.45;;
75589;SDS011;64169;47.240;11.312;2023-04-29T00:21:15;186.73;;;14.95;;
75589;SDS011;64169;47.240;11.312;2023-04-29T00:23:40;197.05;;;11.02;;
75589;SDS011;64169;47.240;11.312;2023-04-29T00:26:06;281.33;;;15.90;;
75589;SDS011;64169;47.240;11.312;2023-04-29T00:28:31;185.25;;;10.00;;
75589;SDS011;64169;47.240;11.312;2023-04-29T00:30:57;250.95;;;13.07;;
75589;SDS011;64169;47.240;11.312;2023-04-29T00:33:22;82.10;;;6.47;;
75589;SDS011;64169;47.240;11.312;2023-04-29T00:35:48;92.38;;;7.50;;
75589;SDS011;64169;47.240;11.312;2023-04-29T00:38:13;36.22;;;4.53;;
75589;SDS011;64169;47.240;11.312;2023-04-29T00:40:38;6.35;;;2.42;;
75589;SDS011;64169;47.240;11.312;2023-04-29T00:43:04;5.80;;;2.40;;
75589;SDS011;64169;47.240;11.312;2023-04-29T00:45:29;6.45;;;2.63;;
75589;SDS011;64169;47.240;11.312;2023-04-29T00:47:55;6.25;;;2.42;;
75589;SDS011;64169;47.240;11.312;2023-04-29T00:50:21;6.47;;;2.53;;
75589;SDS011;64169;47.240;11.312;2023-04-29T00:52:46;5.95;;;2.58;;
75589;SDS011;64169;47.240;11.312;2023-04-29T00:55:12;11.20;;;3.15;;
75589;SDS011;64169;47.240;11.312;2023-04-29T00:57:37;5.95;;;2.45;;
75589;SDS011;64169;47.240;11.312;2023-04-29T01:00:03;6.10;;;2.10;;
75589;SDS011;64169;47.240;11.312;2023-04-29T01:02:29;4.63;;;1.80;;
75589;SDS011;64169;47.240;11.312;2023-04-29T01:04:55;5.55;;;1.90;;
75589;SDS011;64169;47.240;11.312;2023-04-29T01:10:14;5.32;;;1.85;;
75589;SDS011;64169;47.240;11.312;2023-04-29T01:12:44;4.90;;;1.83;;
75589;SDS011;64169;47.240;11.312;2023-04-29T01:15:15;4.25;;;1.50;;
75589;SDS011;64169;47.240;11.312;2023-04-29T01:20:19;4.15;;;1.42;;
75589;SDS011;64169;47.240;11.312;2023-04-29T01:22:46;14.63;;;2.28;;
75589;SDS011;64169;47.240;11.312;2023-04-29T01:25:12;30.98;;;3.38;;
75589;SDS011;64169;47.240;11.312;2023-04-29T01:36:33;143.35;;;9.25;;
75589;SDS011;64169;47.240;11.312;2023-04-29T01:39:14;164.93;;;9.85;;
75589;SDS011;64169;47.240;11.312;2023-04-29T01:41:50;38.33;;;4.22;;
75589;SDS011;64169;47.240;11.312;2023-04-29T01:44:22;112.60;;;7.28;;
75589;SDS011;64169;47.240;11.312;2023-04-29T01:46:50;18.25;;;2.83;;
75589;SDS011;64169;47.240;11.312;2023-04-29T01:49:20;7.68;;;2.03;;
75589;SDS011;64169;47.240;11.312;2023-04-29T01:51:46;5.25;;;1.83;;
75589;SDS011;64169;47.240;11.312;2023-04-29T01:54:11;4.20;;;1.48;;
75589;SDS011;64169;47.240;11.312;2023-04-29T01:56:37;4.10;;;1.70;;
75589;SDS011;64169;47.240;11.312;2023-04-29T01:59:02;4.63;;;1.60;;
75589;SDS011;64169;47.240;11.312;2023-04-29T02:01:28;5.00;;;1.85;;
75589;SDS011;64169;47.240;11.312;2023-04-29T02:03:54;5.20;;;1.70;;
75589;SDS011;64169;47.240;11.312;2023-04-29T02:06:19;4.68;;;1.40;;
75589;SDS011;64169;47.240;11.312;2023-04-29T02:08:45;3.80;;;1.17;;
75589;SDS011;64169;47.240;11.312;2023-04-29T02:11:10;4.25;;;1.25;;
75589;SDS011;64169;47.240;11.312;2023-04-29T02:13:36;4.65;;;1.60;;
75589;SDS011;64169;47.240;11.312;2023-04-29T02:16:08;3.13;;;1.10;;
75589;SDS011;64169;47.240;11.312;2023-04-29T02:18:34;3.47;;;1.08;;
75589;SDS011;64169;47.240;11.312;2023-04-29T02:20:59;2.72;;;0.80;;
75589;SDS011;64169;47.240;11.312;2023-04-29T02:23:28;3.15;;;1.00;;
75589;SDS011;64169;47.240;11.312;2023-04-29T02:25:54;3.35;;;1.00;;
75589;SDS011;64169;47.240;11.312;2023-04-29T02:28:20;2.33;;;0.80;;
75589;SDS011;64169;47.240;11.312;2023-04-29T02:30:47;2.13;;;0.80;;
75589;SDS011;64169;47.240;11.312;2023-04-29T02:33:13;2.33;;;0.80;;
75589;SDS011;64169;47.240;11.312;2023-04-29T02:35:38;2.33;;;0.73;;
75589;SDS011;64169;47.240;11.312;2023-04-29T02:38:03;3.22;;;1.00;;
75589;SDS011;64169;47.240;11.312;2023-04-29T02:40:29;2.50;;;0.70;;
75589;SDS011;64169;47.240;11.312;2023-04-29T02:42:54;1.65;;;0.75;;
75589;SDS011;64169;47.240;11.312;2023-04-29T02:45:19;2.28;;;0.70;;
75589;SDS011;64169;47.240;11.312;2023-04-29T02:47:46;2.42;;;0.70;;
75589;SDS011;64169;47.240;11.312;2023-04-29T02:50:12;2.15;;;0.80;;
75589;SDS011;64169;47.240;11.312;2023-04-29T02:52:37;3.50;;;1.02;;
75589;SDS011;64169;47.240;11.312;2023-04-29T02:55:05;3.22;;;1.10;;
75589;SDS011;64169;47.240;11.312;2023-04-29T02:57:31;3.75;;;1.30;;
75589;SDS011;64169;47.240;11.312;2023-04-29T02:59:57;2.90;;;1.08;;
75589;SDS011;64169;47.240;11.312;2023-04-29T03:02:23;5.15;;;1.70;;
75589;SDS011;64169;47.240;11.312;2023-04-29T03:04:48;4.90;;;1.73;;
75589;SDS011;64169;47.240;11.312;2023-04-29T03:07:14;4.45;;;1.33;;
75589;SDS011;64169;47.240;11.312;2023-04-29T03:09:40;4.32;;;1.38;;
75589;SDS011;64169;47.240;11.312;2023-04-29T03:12:06;4.57;;;1.60;;
75589;SDS011;64169;47.240;11.312;2023-04-29T03:14:31;4.07;;;1.50;;
75589;SDS011;64169;47.240;11.312;2023-04-29T03:16:57;4.20;;;1.48;;
75589;SDS011;64169;47.240;11.312;2023-04-29T03:19:22;5.15;;;1.42;;
75589;SDS011;64169;47.240;11.312;2023-04-29T03:21:48;3.42;;;1.20;;
75589;SDS011;64169;47.240;11.312;2023-04-29T03:24:14;3.75;;;1.50;;
75589;SDS011;64169;47.240;11.312;2023-04-29T03:26:40;4.63;;;1.38;;
75589;SDS011;64169;47.240;11.312;2023-04-29T03:29:07;3.95;;;1.10;;
75589;SDS011;64169;47.240;11.312;2023-04-29T03:31:32;4.13;;;0.85;;
75589;SDS011;64169;47.240;11.312;2023-04-29T03:33:58;2.15;;;0.73;;
75589;SDS011;64169;47.240;11.312;2023-04-29T03:36:23;1.60;;;0.60;;
75589;SDS011;64169;47.240;11.312;2023-04-29T03:38:49;2.03;;;0.90;;
75589;SDS011;64169;47.240;11.312;2023-04-29T03:41:14;1.50;;;0.60;;
75589;SDS011;64169;47.240;11.312;2023-04-29T03:43:40;2.47;;;0.80;;
75589;SDS011;64169;47.240;11.312;2023-04-29T03:46:08;5.95;;;1.27;;
75589;SDS011;64169;47.240;11.312;2023-04-29T03:48:33;2.75;;;0.65;;
75589;SDS011;64169;47.240;11.312;2023-04-29T03:50:59;3.45;;;1.10;;
75589;SDS011;64169;47.240;11.312;2023-04-29T03:53:24;3.58;;;1.27;;
75589;SDS011;64169;47.240;11.312;2023-04-29T03:55:50;2.72;;;0.80;;
75589;SDS011;64169;47.240;11.312;2023-04-29T03:58:15;3.30;;;0.93;;
75589;SDS011;64169;47.240;11.312;2023-04-29T04:00:41;3.60;;;1.20;;
75589;SDS011;64169;47.240;11.312;2023-04-29T04:03:06;2.95;;;1.08;;
75589;SDS011;64169;47.240;11.312;2023-04-29T04:05:33;5.15;;;1.20;;
75589;SDS011;64169;47.240;11.312;2023-04-29T04:07:58;3.88;;;1.63;;
75589;SDS011;64169;47.240;11.312;2023-04-29T04:10:24;17.67;;;3.10;;
75589;SDS011;64169;47.240;11.312;2023-04-29T04:12:50;14.73;;;2.70;;
75589;SDS011;64169;47.240;11.312;2023-04-29T04:15:15;15.43;;;1.90;;
75589;SDS011;64169;47.240;11.312;2023-04-29T04:17:41;8.80;;;2.08;;
75589;SDS011;64169;47.240;11.312;2023-04-29T04:20:07;4.45;;;1.90;;
75589;SDS011;64169;47.240;11.312;2023-04-29T04:22:32;4.43;;;1.50;;
75589;SDS011;64169;47.240;11.312;2023-04-29T04:24:58;4.57;;;1.33;;
75589;SDS011;64169;47.240;11.312;2023-04-29T04:27:23;4.05;;;1.60;;
75589;SDS011;64169;47.240;11.312;2023-04-29T04:29:57;5.05;;;2.00;;
75589;SDS011;64169;47.240;11.312;2023-04-29T04:32:23;5.53;;;2.05;;
75589;SDS011;64169;47.240;11.312;2023-04-29T04:34:48;5.45;;;2.35;;
75589;SDS011;64169;47.240;11.312;2023-04-29T04:37:14;5.72;;;2.22;;
75589;SDS011;64169;47.240;11.312;2023-04-29T04:39:40;8.35;;;3.13;;
75589;SDS011;64169;47.240;11.312;2023-04-29T04:42:05;8.48;;;3.65;;
75589;SDS011;64169;47.240;11.312;2023-04-29T04:44:31;6.78;;;2.70;;
75589;SDS011;64169;47.240;11.312;2023-04-29T04:46:57;6.88;;;3.13;;
75589;SDS011;64169;47.240;11.312;2023-04-29T04:49:24;6.22;;;2.40;;
75589;SDS011;64169;47.240;11.312;2023-04-29T04:51:49;6.43;;;2.30;;
75589;SDS011;64169;47.240;11.312;2023-04-29T04:54:15;5.28;;;1.90;;
75589;SDS011;64169;47.240;11.312;2023-04-29T04:56:41;7.07;;;2.33;;
75589;SDS011;64169;47.240;11.312;2023-04-29T04:59:07;6.85;;;2.75;;
75589;SDS011;64169;47.240;11.312;2023-04-29T05:01:32;6.72;;;3.05;;
75589;SDS011;64169;47.240;11.312;2023-04-29T05:03:58;7.95;;;2.38;;
75589;SDS011;64169;47.240;11.312;2023-04-29T05:06:24;5.22;;;1.52;;
75589;SDS011;64169;47.240;11.312;2023-04-29T05:08:50;5.82;;;1.52;;
75589;SDS011;64169;47.240;11.312;2023-04-29T05:11:19;4.90;;;1.80;;
75589;SDS011;64169;47.240;11.312;2023-04-29T05:13:45;6.68;;;2.17;;
75589;SDS011;64169;47.240;11.312;2023-04-29T05:16:10;6.32;;;1.83;;
75589;SDS011;64169;47.240;11.312;2023-04-29T05:18:36;5.63;;;1.80;;
75589;SDS011;64169;47.240;11.312;2023-04-29T05:21:01;4.78;;;1.70;;
75589;SDS011;64169;47.240;11.312;2023-04-29T05:23:27;4.57;;;1.77;;
75589;SDS011;64169;47.240;11.312;2023-04-29T05:25:52;5.10;;;1.40;;
75589;SDS011;64169;47.240;11.312;2023-04-29T05:28:18;3.70;;;1.00;;
75589;SDS011;64169;47.240;11.312;2023-04-29T05:30:43;3.47;;;1.23;;
75589;SDS011;64169;47.240;11.312;2023-04-29T05:33:09;3.92;;;1.42;;
75589;SDS011;64169;47.240;11.312;2023-04-29T05:35:35;4.97;;;1.95;;
75589;SDS011;64169;47.240;11.312;2023-04-29T05:38:01;4.55;;;1.63;;
75589;SDS011;64169;47.240;11.312;2023-04-29T05:40:27;5.05;;;2.03;;
75589;SDS011;64169;47.240;11.312;2023-04-29T05:42:52;5.95;;;2.25;;
75589;SDS011;64169;47.240;11.312;2023-04-29T05:45:18;5.97;;;2.72;;
75589;SDS011;64169;47.240;11.312;2023-04-29T05:47:43;7.43;;;2.70;;
75589;SDS011;64169;47.240;11.312;2023-04-29T05:50:09;5.78;;;2.25;;
75589;SDS011;64169;47.240;11.312;2023-04-29T05:52:35;5.55;;;2.30;;
75589;SDS011;64169;47.240;11.312;2023-04-29T05:55:01;5.70;;;2.63;;
75589;SDS011;64169;47.240;11.312;2023-04-29T05:57:26;4.65;;;1.60;;
75589;SDS011;64169;47.240;11.312;2023-04-29T05:59:52;4.43;;;1.77;;
75589;SDS011;64169;47.240;11.312;2023-04-29T06:02:19;5.15;;;1.75;;
75589;SDS011;64169;47.240;11.312;2023-04-29T06:04:45;38.97;;;19.35;;
75589;SDS011;64169;47.240;11.312;2023-04-29T06:07:11;55.65;;;5.90;;
75589;SDS011;64169;47.240;11.312;2023-04-29T06:09:37;35.42;;;6.25;;
75589;SDS011;64169;47.240;11.312;2023-04-29T06:12:03;245.90;;;15.23;;
75589;SDS011;64169;47.240;11.312;2023-04-29T06:14:29;118.03;;;7.70;;
75589;SDS011;64169;47.240;11.312;2023-04-29T06:16:54;54.05;;;5.07;;
75589;SDS011;64169;47.240;11.312;2023-04-29T06:19:20;6.75;;;2.30;;
75589;SDS011;64169;47.240;11.312;2023-04-29T06:21:45;3.60;;;1.30;;
75589;SDS011;64169;47.240;11.312;2023-04-29T06:24:10;4.50;;;1.23;;
75589;SDS011;64169;47.240;11.312;2023-04-29T06:26:36;5.47;;;1.42;;
75589;SDS011;64169;47.240;11.312;2023-04-29T06:29:02;3.65;;;1.30;;
75589;SDS011;64169;47.240;11.312;2023-04-29T06:31:27;4.88;;;1.48;;
75589;SDS011;64169;47.240;11.312;2023-04-29T06:33:53;3.30;;;1.15;;
75589;SDS011;64169;47.240;11.312;2023-04-29T06:36:18;3.05;;;1.05;;
75589;SDS011;64169;47.240;11.312;2023-04-29T06:38:44;3.75;;;1.30;;
75589;SDS011;64169;47.240;11.312;2023-04-29T06:41:10;5.22;;;1.25;;
75589;SDS011;64169;47.240;11.312;2023-04-29T06:43:35;2.50;;;0.93;;
75589;SDS011;64169;47.240;11.312;2023-04-29T06:46:01;2.95;;;0.95;;
75589;SDS011;64169;47.240;11.312;2023-04-29T06:48:26;3.05;;;0.93;;
75589;SDS011;64169;47.240;11.312;2023-04-29T06:50:53;2.67;;;0.73;;
75589;SDS011;64169;47.240;11.312;2023-04-29T06:53:19;1.92;;;0.60;;
75589;SDS011;64169;47.240;11.312;2023-04-29T06:55:45;2.40;;;0.98;;
75589;SDS011;64169;47.240;11.312;2023-04-29T06:58:11;1.73;;;0.70;;
75589;SDS011;64169;47.240;11.312;2023-04-29T07:00:38;3.25;;;1.17;;
75589;SDS011;64169;47.240;11.312;2023-04-29T07:03:03;1.33;;;0.60;;
75589;SDS011;64169;47.240;11.312;2023-04-29T07:05:29;2.75;;;0.60;;
75589;SDS011;64169;47.240;11.312;2023-04-29T07:07:54;2.47;;;0.80;;
75589;SDS011;64169;47.240;11.312;2023-04-29T07:10:20;3.00;;;1.02;;
75589;SDS011;64169;47.240;11.312;2023-04-29T07:12:45;1.55;;;0.63;;
75589;SDS011;64169;47.240;11.312;2023-04-29T07:15:10;1.58;;;0.70;;
75589;SDS011;64169;47.240;11.312;2023-04-29T07:17:36;2.80;;;1.00;;
75589;SDS011;64169;47.240;11.312;2023-04-29T07:20:02;2.58;;;0.82;;
75589;SDS011;64169;47.240;11.312;2023-04-29T07:22:28;3.30;;;1.00;;
75589;SDS011;64169;47.240;11.312;2023-04-29T07:24:53;3.65;;;1.50;;
75589;SDS011;64169;47.240;11.312;2023-04-29T07:27:19;3.97;;;1.60;;
75589;SDS011;64169;47.240;11.312;2023-04-29T07:29:45;4.50;;;1.40;;
75589;SDS011;64169;47.240;11.312;2023-04-29T07:32:10;4.68;;;1.60;;
75589;SDS011;64169;47.240;11.312;2023-04-29T07:34:36;4.82;;;1.60;;
75589;SDS011;64169;47.240;11.312;2023-04-29T07:37:02;4.78;;;1.65;;
75589;SDS011;64169;47.240;11.312;2023-04-29T07:39:27;4.07;;;1.88;;
75589;SDS011;64169;47.240;11.312;2023-04-29T07:41:54;4.05;;;1.60;;
75589;SDS011;64169;47.240;11.312;2023-04-29T07:44:19;4.50;;;1.83;;
75589;SDS011;64169;47.240;11.312;2023-04-29T07:46:46;3.63;;;1.25;;
75589;SDS011;64169;47.240;11.312;2023-04-29T07:49:11;5.45;;;1.50;;
75589;SDS011;64169;47.240;11.312;2023-04-29T07:51:39;6.30;;;1.42;;
75589;SDS011;64169;47.240;11.312;2023-04-29T07:54:06;4.40;;;1.25;;
75589;SDS011;64169;47.240;11.312;2023-04-29T07:56:32;2.97;;;0.98;;
75589;SDS011;64169;47.240;11.312;2023-04-29T07:58:58;4.15;;;1.27;;
75589;SDS011;64169;47.240;11.312;2023-04-29T08:01:24;2.97;;;1.00;;
75589;SDS011;64169;47.240;11.312;2023-04-29T08:03:50;2.95;;;1.08;;
75589;SDS011;64169;47.240;11.312;2023-04-29T08:06:15;3.50;;;1.08;;
75589;SDS011;64169;47.240;11.312;2023-04-29T08:08:42;3.70;;;1.20;;
75589;SDS011;64169;47.240;11.312;2023-04-29T08:11:11;3.33;;;1.00;;
75589;SDS011;64169;47.240;11.312;2023-04-29T08:13:39;2.72;;;0.88;;
75589;SDS011;64169;47.240;11.312;2023-04-29T08:16:05;4.13;;;1.33;;
75589;SDS011;64169;47.240;11.312;2023-04-29T08:18:30;5.82;;;1.20;;
75589;SDS011;64169;47.240;11.312;2023-04-29T08:20:56;2.92;;;1.00;;
75589;SDS011;64169;47.240;11.312;2023-04-29T08:23:21;3.33;;;1.00;;
75589;SDS011;64169;47.240;11.312;2023-04-29T08:25:47;2.25;;;0.82;;
75589;SDS011;64169;47.240;11.312;2023-04-29T08:28:15;4.00;;;1.10;;
75589;SDS011;64169;47.240;11.312;2023-04-29T08:30:41;3.15;;;1.10;;
75589;SDS011;64169;47.240;11.312;2023-04-29T08:33:07;3.28;;;1.10;;
75589;SDS011;64169;47.240;11.312;2023-04-29T08:35:33;2.83;;;1.08;;
75589;SDS011;64169;47.240;11.312;2023-04-29T08:38:01;2.92;;;0.95;;
75589;SDS011;64169;47.240;11.312;2023-04-29T08:40:29;2.00;;;0.68;;
75589;SDS011;64169;47.240;11.312;2023-04-29T08:42:55;2.65;;;1.00;;
75589;SDS011;64169;47.240;11.312;2023-04-29T08:45:21;3.38;;;1.10;;
75589;SDS011;64169;47.240;11.312;2023-04-29T08:47:48;2.95;;;1.10;;
75589;SDS011;64169;47.240;11.312;2023-04-29T08:50:15;2.92;;;1.00;;
75589;SDS011;64169;47.240;11.312;2023-04-29T08:52:41;3.42;;;1.00;;
75589;SDS011;64169;47.240;11.312;2023-04-29T08:55:07;2.40;;;1.00;;
75589;SDS011;64169;47.240;11.312;2023-04-29T08:57:34;2.47;;;0.80;;
75589;SDS011;64169;47.240;11.312;2023-04-29T09:02:30;3.08;;;0.75;;
75589;SDS011;64169;47.240;11.312;2023-04-29T09:05:07;2.08;;;0.82;;
75589;SDS011;64169;47.240;11.312;2023-04-29T09:07:34;1.92;;;0.80;;
75589;SDS011;64169;47.240;11.312;2023-04-29T09:10:00;1.42;;;0.68;;
75589;SDS011;64169;47.240;11.312;2023-04-29T09:12:26;1.63;;;0.73;;
75589;SDS011;64169;47.240;11.312;2023-04-29T09:14:51;1.15;;;0.50;;
75589;SDS011;64169;47.240;11.312;2023-04-29T09:17:17;1.35;;;0.63;;
75589;SDS011;64169;47.240;11.312;2023-04-29T09:19:42;3.67;;;0.60;;
75589;SDS011;64169;47.240;11.312;2023-04-29T09:22:08;1.25;;;0.50;;
75589;SDS011;64169;47.240;11.312;2023-04-29T09:24:35;1.95;;;0.55;;
75589;SDS011;64169;47.240;11.312;2023-04-29T09:27:01;1.50;;;0.63;;
75589;SDS011;64169;47.240;11.312;2023-04-29T09:29:28;0.82;;;0.57;;
75589;SDS011;64169;47.240;11.312;2023-04-29T09:31:54;0.80;;;0.52;;
75589;SDS011;64169;47.240;11.312;2023-04-29T09:34:32;1.55;;;0.52;;
75589;SDS011;64169;47.240;11.312;2023-04-29T09:37:00;0.45;;;0.30;;
75589;SDS011;64169;47.240;11.312;2023-04-29T09:39:25;1.20;;;0.40;;
75589;SDS011;64169;47.240;11.312;2023-04-29T09:44:16;1.80;;;0.60;;
75589;SDS011;64169;47.240;11.312;2023-04-29T09:46:42;0.98;;;0.50;;
75589;SDS011;64169;47.240;11.312;2023-04-29T09:49:21;2.55;;;0.60;;
75589;SDS011;64169;47.240;11.312;2023-04-29T09:51:56;1.13;;;0.60;;
75589;SDS011;64169;47.240;11.312;2023-04-29T09:54:23;1.23;;;0.50;;
75589;SDS011;64169;47.240;11.312;2023-04-29T09:56:55;1.35;;;0.47;;
75589;SDS011;64169;47.240;11.312;2023-04-29T09:59:21;1.17;;;0.40;;
75589;SDS011;64169;47.240;11.312;2023-04-29T10:01:48;1.02;;;0.50;;
75589;SDS011;64169;47.240;11.312;2023-04-29T10:04:18;2.83;;;0.70;;
75589;SDS011;64169;47.240;11.312;2023-04-29T10:06:44;1.75;;;0.77;;
75589;SDS011;64169;47.240;11.312;2023-04-29T10:09:13;1.00;;;0.57;;
75589;SDS011;64169;47.240;11.312;2023-04-29T10:11:40;1.73;;;0.63;;
75589;SDS011;64169;47.240;11.312;2023-04-29T10:14:06;1.60;;;0.60;;
75589;SDS011;64169;47.240;11.312;2023-04-29T10:16:33;2.28;;;0.70;;
75589;SDS011;64169;47.240;11.312;2023-04-29T10:18:59;1.15;;;0.50;;
75589;SDS011;64169;47.240;11.312;2023-04-29T10:21:28;1.17;;;0.50;;
75589;SDS011;64169;47.240;11.312;2023-04-29T10:23:55;4.28;;;0.70;;
75589;SDS011;64169;47.240;11.312;2023-04-29T10:26:25;1.27;;;0.60;;
75589;SDS011;64169;47.240;11.312;2023-04-29T10:28:52;1.75;;;0.80;;
75589;SDS011;64169;47.240;11.312;2023-04-29T10:31:24;0.60;;;0.50;;
75589;SDS011;64169;47.240;11.312;2023-04-29T10:33:51;1.25;;;0.50;;
75589;SDS011;64169;47.240;11.312;2023-04-29T10:36:20;1.98;;;0.63;;
75589;SDS011;64169;47.240;11.312;2023-04-29T10:38:47;2.03;;;0.70;;
75589;SDS011;64169;47.240;11.312;2023-04-29T10:41:18;2.00;;;0.80;;
75589;SDS011;64169;47.240;11.312;2023-04-29T10:43:48;1.33;;;0.65;;
75589;SDS011;64169;47.240;11.312;2023-04-29T10:48:47;1.92;;;0.70;;
75589;SDS011;64169;47.240;11.312;2023-04-29T10:51:27;1.40;;;0.70;;
75589;SDS011;64169;47.240;11.312;2023-04-29T10:56:38;2.78;;;1.27;;
75589;SDS011;64169;47.240;11.312;2023-04-29T10:59:04;1.35;;;0.70;;
75589;SDS011;64169;47.240;11.312;2023-04-29T11:01:46;2.20;;;0.68;;
75589;SDS011;64169;47.240;11.312;2023-04-29T11:06:39;1.48;;;0.40;;
75589;SDS011;64169;47.240;11.312;2023-04-29T11:12:09;1.45;;;0.50;;
75589;SDS011;64169;47.240;11.312;2023-04-29T11:14:50;1.45;;;0.50;;
75589;SDS011;64169;47.240;11.312;2023-04-29T11:17:16;0.47;;;0.40;;
75589;SDS011;64169;47.240;11.312;2023-04-29T11:19:49;1.85;;;0.57;;
75589;SDS011;64169;47.240;11.312;2023-04-29T11:27:33;1.10;;;0.60;;
75589;SDS011;64169;47.240;11.312;2023-04-29T11:30:01;2.88;;;0.45;;
75589;SDS011;64169;47.240;11.312;2023-04-29T11:32:33;1.48;;;0.55;;
75589;SDS011;64169;47.240;11.312;2023-04-29T11:35:06;1.17;;;0.52;;
75589;SDS011;64169;47.240;11.312;2023-04-29T11:40:01;2.47;;;0.60;;
75589;SDS011;64169;47.240;11.312;2023-04-29T11:42:27;1.65;;;0.63;;
75589;SDS011;64169;47.240;11.312;2023-04-29T11:44:53;1.10;;;0.50;;
75589;SDS011;64169;47.240;11.312;2023-04-29T11:47:21;3.75;;;1.00;;
75589;SDS011;64169;47.240;11.312;2023-04-29T11:49:50;2.53;;;0.70;;
75589;SDS011;64169;47.240;11.312;2023-04-29T11:52:16;2.45;;;0.70;;
75589;SDS011;64169;47.240;11.312;2023-04-29T11:54:41;3.90;;;0.80;;
75589;SDS011;64169;47.240;11.312;2023-04-29T11:57:09;1.40;;;0.60;;
75589;SDS011;64169;47.240;11.312;2023-04-29T11:59:35;0.77;;;0.50;;
75589;SDS011;64169;47.240;11.312;2023-04-29T12:02:00;2.58;;;0.60;;
75589;SDS011;64169;47.240;11.312;2023-04-29T12:04:26;1.50;;;0.70;;
75589;SDS011;64169;47.240;11.312;2023-04-29T12:06:51;3.60;;;0.90;;
75589;SDS011;64169;47.240;11.312;2023-04-29T12:09:17;3.90;;;0.60;;
75589;SDS011;64169;47.240;11.312;2023-04-29T12:11:43;1.90;;;0.65;;
75589;SDS011;64169;47.240;11.312;2023-04-29T12:14:10;1.70;;;0.50;;
75589;SDS011;64169;47.240;11.312;2023-04-29T12:16:37;1.20;;;0.47;;
75589;SDS011;64169;47.240;11.312;2023-04-29T12:19:02;1.73;;;0.40;;
75589;SDS011;64169;47.240;11.312;2023-04-29T12:21:28;2.38;;;0.60;;
75589;SDS011;64169;47.240;11.312;2023-04-29T12:23:53;3.25;;;0.50;;
75589;SDS011;64169;47.240;11.312;2023-04-29T12:26:18;0.85;;;0.40;;
75589;SDS011;64169;47.240;11.312;2023-04-29T12:28:47;2.00;;;0.45;;
75589;SDS011;64169;47.240;11.312;2023-04-29T12:31:13;1.10;;;0.50;;
75589;SDS011;64169;47.240;11.312;2023-04-29T12:33:41;1.20;;;0.52;;
75589;SDS011;64169;47.240;11.312;2023-04-29T12:36:14;1.00;;;0.43;;
75589;SDS011;64169;47.240;11.312;2023-04-29T12:38:42;1.00;;;0.40;;
75589;SDS011;64169;47.240;11.312;2023-04-29T12:41:07;1.25;;;0.50;;
75589;SDS011;64169;47.240;11.312;2023-04-29T12:43:33;0.95;;;0.50;;
75589;SDS011;64169;47.240;11.312;2023-04-29T12:48:32;2.58;;;0.50;;
75589;SDS011;64169;47.240;11.312;2023-04-29T12:50:58;5.40;;;1.10;;
75589;SDS011;64169;47.240;11.312;2023-04-29T12:53:33;4.13;;;0.85;;
75589;SDS011;64169;47.240;11.312;2023-04-29T12:55:58;2.20;;;0.60;;
75589;SDS011;64169;47.240;11.312;2023-04-29T12:58:27;3.03;;;0.52;;
75589;SDS011;64169;47.240;11.312;2023-04-29T13:00:52;5.25;;;0.60;;
75589;SDS011;64169;47.240;11.312;2023-04-29T13:03:18;3.15;;;0.70;;
75589;SDS011;64169;47.240;11.312;2023-04-29T13:05:43;4.03;;;0.90;;
75589;SDS011;64169;47.240;11.312;2023-04-29T13:08:09;3.13;;;0.70;;
75589;SDS011;64169;47.240;11.312;2023-04-29T13:10:34;1.35;;;0.60;;
75589;SDS011;64169;47.240;11.312;2023-04-29T13:13:00;4.13;;;0.52;;
75589;SDS011;64169;47.240;11.312;2023-04-29T13:15:26;9.65;;;0.90;;
75589;SDS011;64169;47.240;11.312;2023-04-29T13:17:52;0.85;;;0.40;;
75589;SDS011;64169;47.240;11.312;2023-04-29T13:20:17;0.93;;;0.40;;
75589;SDS011;64169;47.240;11.312;2023-04-29T13:22:43;1.33;;;0.43;;
75589;SDS011;64169;47.240;11.312;2023-04-29T13:25:09;1.85;;;0.43;;
75589;SDS011;64169;47.240;11.312;2023-04-29T13:27:36;1.13;;;0.50;;
75589;SDS011;64169;47.240;11.312;2023-04-29T13:30:02;2.22;;;0.60;;
75589;SDS011;64169;47.240;11.312;2023-04-29T13:32:28;1.05;;;0.32;;
75589;SDS011;64169;47.240;11.312;2023-04-29T13:34:53;1.40;;;0.60;;
75589;SDS011;64169;47.240;11.312;2023-04-29T13:37:18;1.70;;;0.40;;
75589;SDS011;64169;47.240;11.312;2023-04-29T13:39:44;1.92;;;0.60;;
75589;SDS011;64169;47.240;11.312;2023-04-29T13:42:09;1.50;;;0.50;;
75589;SDS011;64169;47.240;11.312;2023-04-29T13:44:35;1.75;;;0.60;;
75589;SDS011;64169;47.240;11.312;2023-04-29T13:47:01;1.10;;;0.50;;
75589;SDS011;64169;47.240;11.312;2023-04-29T13:49:27;1.75;;;0.55;;
75589;SDS011;64169;47.240;11.312;2023-04-29T13:51:52;1.48;;;0.60;;
75589;SDS011;64169;47.240;11.312;2023-04-29T13:54:18;1.75;;;0.50;;
75589;SDS011;64169;47.240;11.312;2023-04-29T13:56:45;2.10;;;0.70;;
75589;SDS011;64169;47.240;11.312;2023-04-29T13:59:11;1.58;;;0.52;;
75589;SDS011;64169;47.240;11.312;2023-04-29T14:01:37;1.17;;;0.40;;
75589;SDS011;64169;47.240;11.312;2023-04-29T14:04:02;1.27;;;0.60;;
75589;SDS011;64169;47.240;11.312;2023-04-29T14:06:28;1.80;;;0.50;;
75589;SDS011;64169;47.240;11.312;2023-04-29T14:08:56;1.52;;;0.60;;
75589;SDS011;64169;47.240;11.312;2023-04-29T14:11:22;1.48;;;0.45;;
75589;SDS011;64169;47.240;11.312;2023-04-29T14:13:47;0.60;;;0.47;;
75589;SDS011;64169;47.240;11.312;2023-04-29T14:16:13;2.05;;;0.75;;
75589;SDS011;64169;47.240;11.312;2023-04-29T14:18:38;1.75;;;0.52;;
75589;SDS011;64169;47.240;11.312;2023-04-29T14:21:04;1.45;;;0.50;;
75589;SDS011;64169;47.240;11.312;2023-04-29T14:23:29;2.67;;;0.60;;
75589;SDS011;64169;47.240;11.312;2023-04-29T14:25:55;1.60;;;0.50;;
75589;SDS011;64169;47.240;11.312;2023-04-29T14:28:20;1.55;;;0.50;;
75589;SDS011;64169;47.240;11.312;2023-04-29T14:30:45;2.85;;;0.60;;
75589;SDS011;64169;47.240;11.312;2023-04-29T14:33:11;1.42;;;0.60;;
75589;SDS011;64169;47.240;11.312;2023-04-29T14:35:36;1.52;;;0.40;;
75589;SDS011;64169;47.240;11.312;2023-04-29T14:38:01;1.00;;;0.60;;
75589;SDS011;64169;47.240;11.312;2023-04-29T14:40:27;1.33;;;0.50;;
75589;SDS011;64169;47.240;11.312;2023-04-29T14:42:53;2.38;;;0.50;;
75589;SDS011;64169;47.240;11.312;2023-04-29T14:45:18;1.27;;;0.50;;
75589;SDS011;64169;47.240;11.312;2023-04-29T14:47:44;1.45;;;0.80;;
75589;SDS011;64169;47.240;11.312;2023-04-29T14:50:09;2.97;;;0.60;;
75589;SDS011;64169;47.240;11.312;2023-04-29T14:52:35;0.95;;;0.43;;
75589;SDS011;64169;47.240;11.312;2023-04-29T14:55:01;2.10;;;0.70;;
75589;SDS011;64169;47.240;11.312;2023-04-29T14:57:26;2.55;;;1.02;;
75589;SDS011;64169;47.240;11.312;2023-04-29T14:59:54;2.58;;;0.70;;
75589;SDS011;64169;47.240;11.312;2023-04-29T15:02:20;3.65;;;0.73;;
75589;SDS011;64169;47.240;11.312;2023-04-29T15:04:45;0.93;;;0.45;;
75589;SDS011;64169;47.240;11.312;2023-04-29T15:07:14;1.70;;;0.60;;
75589;SDS011;64169;47.240;11.312;2023-04-29T15:09:40;1.15;;;0.40;;